createdAt,value
2017-05-17T00:02:11.695Z,19.50
2017-05-17T00:04:38.472Z,19.50
2017-05-17T00:07:05.263Z,19.40
2017-05-17T00:09:32.037Z,19.40
2017-05-17T00:11:58.804Z,19.40
2017-05-17T00:14:25.580Z,19.40
2017-05-17T00:16:53.083Z,19.30
2017-05-17T00:19:19.872Z,19.30
2017-05-17T00:21:47.368Z,19.20
2017-05-17T00:24:14.144Z,19.10
2017-05-17T00:26:40.939Z,19.10
2017-05-17T00:29:07.709Z,19.10
2017-05-17T00:31:34.471Z,19.10
2017-05-17T00:34:01.272Z,19.20
2017-05-17T00:36:40.303Z,19.20
2017-05-17T00:39:19.579Z,19.20
2017-05-17T00:41:58.783Z,19.20
2017-05-17T00:44:38.164Z,19.10
2017-05-17T00:47:17.401Z,19.10
2017-05-17T00:49:56.618Z,19.00
2017-05-17T00:52:23.368Z,18.90
2017-05-17T00:54:50.134Z,18.70
2017-05-17T00:57:17.651Z,18.70
2017-05-17T00:59:44.411Z,18.60
2017-05-17T01:02:11.215Z,18.70
2017-05-17T01:04:37.967Z,18.60
2017-05-17T01:07:04.737Z,18.60
2017-05-17T01:09:31.524Z,18.50
2017-05-17T01:11:58.303Z,18.40
2017-05-17T01:14:25.104Z,18.30
2017-05-17T01:16:51.871Z,18.30
2017-05-17T01:19:18.637Z,18.30
2017-05-17T01:21:45.439Z,18.30
2017-05-17T01:24:12.196Z,18.30
2017-05-17T01:26:46.102Z,18.40
2017-05-17T01:29:12.870Z,18.40
2017-05-17T01:31:39.641Z,18.40
2017-05-17T01:34:06.424Z,18.30
2017-05-17T01:36:33.187Z,18.30
2017-05-17T01:38:59.983Z,18.30
2017-05-17T01:41:27.506Z,18.40
2017-05-17T01:43:54.611Z,18.40
2017-05-17T01:46:21.393Z,18.50
2017-05-17T01:48:48.164Z,18.50
2017-05-17T01:51:14.947Z,18.50
2017-05-17T01:53:41.715Z,18.40
2017-05-17T01:56:08.812Z,18.40
2017-05-17T01:58:36.328Z,18.30
2017-05-17T02:01:03.092Z,18.30
2017-05-17T02:03:29.875Z,18.30
2017-05-17T02:05:56.645Z,18.30
2017-05-17T02:08:23.397Z,18.40
2017-05-17T02:10:50.181Z,18.50
2017-05-17T02:13:17.694Z,18.50
2017-05-17T02:15:44.492Z,18.50
2017-05-17T02:18:11.416Z,18.50
2017-05-17T02:20:38.921Z,18.60
2017-05-17T02:23:05.707Z,18.60
2017-05-17T02:25:32.472Z,18.60
2017-05-17T02:28:00.030Z,18.50
2017-05-17T02:30:27.544Z,18.40
2017-05-17T02:32:54.313Z,18.50
2017-05-17T02:35:21.854Z,18.50
2017-05-17T02:37:48.643Z,18.50
2017-05-17T02:40:15.441Z,18.50
2017-05-17T02:42:42.211Z,18.50
2017-05-17T02:45:09.725Z,18.40
2017-05-17T02:47:36.500Z,18.50
2017-05-17T02:50:03.281Z,18.40
2017-05-17T02:52:30.085Z,18.40
2017-05-17T02:54:56.853Z,18.40
2017-05-17T02:57:24.408Z,18.40
2017-05-17T02:59:52.056Z,18.40
2017-05-17T03:02:18.824Z,18.30
2017-05-17T03:04:45.616Z,18.20
2017-05-17T03:07:12.380Z,18.20
2017-05-17T03:09:39.151Z,18.10
2017-05-17T03:12:05.936Z,18.00
2017-05-17T03:14:33.047Z,17.90
2017-05-17T03:16:59.839Z,17.80
2017-05-17T03:19:26.828Z,17.80
2017-05-17T03:21:53.591Z,17.90
2017-05-17T03:24:20.382Z,17.90
2017-05-17T03:26:47.169Z,18.00
2017-05-17T03:29:13.963Z,18.00
2017-05-17T03:31:40.793Z,18.10
2017-05-17T03:34:07.568Z,18.10
2017-05-17T03:36:35.193Z,18.10
2017-05-17T03:39:01.992Z,18.10
2017-05-17T03:41:28.840Z,18.20
2017-05-17T03:43:55.629Z,18.10
2017-05-17T03:46:22.409Z,18.10
2017-05-17T03:48:49.932Z,18.10
2017-05-17T03:51:16.708Z,18.10
2017-05-17T03:53:44.280Z,18.20
2017-05-17T03:56:11.804Z,18.20
2017-05-17T03:58:39.336Z,18.20
2017-05-17T04:01:06.117Z,18.30
2017-05-17T04:03:32.882Z,18.30
2017-05-17T04:05:59.680Z,18.30
2017-05-17T04:08:26.540Z,18.30
2017-05-17T04:10:53.310Z,18.30
2017-05-17T04:13:20.819Z,18.40
2017-05-17T04:15:47.584Z,18.40
2017-05-17T04:18:14.384Z,18.40
2017-05-17T04:20:41.194Z,18.40
2017-05-17T04:23:07.941Z,18.40
2017-05-17T04:25:34.728Z,18.50
2017-05-17T04:28:01.500Z,18.40
2017-05-17T04:30:28.349Z,18.50
2017-05-17T04:32:55.085Z,18.50
2017-05-17T04:35:21.836Z,18.60
2017-05-17T04:37:49.465Z,18.50
2017-05-17T04:40:16.227Z,18.50
2017-05-17T04:42:42.984Z,18.60
2017-05-17T04:45:10.515Z,18.60
2017-05-17T04:47:37.288Z,18.70
2017-05-17T04:50:04.789Z,18.70
2017-05-17T04:52:32.364Z,18.70
2017-05-17T04:54:59.144Z,18.80
2017-05-17T04:57:26.675Z,18.90
2017-05-17T04:59:53.433Z,19.00
2017-05-17T05:02:20.192Z,19.00
2017-05-17T05:04:47.705Z,19.10
2017-05-17T05:07:14.510Z,19.10
2017-05-17T05:09:41.308Z,19.20
2017-05-17T05:12:08.068Z,19.30
2017-05-17T05:14:34.830Z,19.30
2017-05-17T05:17:02.364Z,19.40
2017-05-17T05:19:29.123Z,19.50
2017-05-17T05:21:56.656Z,19.50
2017-05-17T05:24:23.455Z,19.50
2017-05-17T05:26:50.239Z,19.50
2017-05-17T05:29:17.027Z,19.40
2017-05-17T05:31:43.868Z,19.50
2017-05-17T05:34:10.929Z,19.50
2017-05-17T05:36:37.683Z,19.50
2017-05-17T05:39:04.441Z,19.70
2017-05-17T05:41:31.231Z,19.70
2017-05-17T05:43:58.997Z,19.80
2017-05-17T05:46:26.515Z,19.90
2017-05-17T05:48:53.281Z,20.10
2017-05-17T05:51:20.068Z,20.10
2017-05-17T05:53:46.889Z,20.20
2017-05-17T05:56:13.653Z,20.20
2017-05-17T05:58:40.477Z,20.30
2017-05-17T06:01:07.262Z,20.40
2017-05-17T06:03:34.040Z,20.40
2017-05-17T06:06:00.840Z,20.40
2017-05-17T06:08:27.644Z,20.40
2017-05-17T06:10:55.405Z,20.40
2017-05-17T06:13:22.909Z,20.50
2017-05-17T06:15:49.697Z,20.60
2017-05-17T06:18:17.196Z,20.70
2017-05-17T06:20:43.998Z,20.80
2017-05-17T06:23:11.534Z,21.00
2017-05-17T06:25:38.296Z,21.20
2017-05-17T06:28:05.078Z,21.40
2017-05-17T06:30:31.864Z,21.50
2017-05-17T06:32:58.689Z,21.60
2017-05-17T06:35:25.453Z,21.70
2017-05-17T06:37:52.212Z,21.70
2017-05-17T06:40:19.852Z,21.70
2017-05-17T06:42:46.608Z,21.70
2017-05-17T06:45:13.394Z,21.80
2017-05-17T06:47:40.162Z,22.00
2017-05-17T06:50:06.924Z,22.10
2017-05-17T06:52:33.684Z,22.10
2017-05-17T06:55:01.527Z,22.20
2017-05-17T06:57:28.353Z,22.40
2017-05-17T06:59:55.164Z,22.40
2017-05-17T07:02:21.920Z,22.60
2017-05-17T07:04:48.701Z,22.60
2017-05-17T07:07:15.455Z,22.70
2017-05-17T07:09:42.228Z,22.70
2017-05-17T07:12:08.999Z,22.80
2017-05-17T07:14:35.806Z,22.80
2017-05-17T07:17:02.565Z,22.90
2017-05-17T07:19:29.337Z,22.90
2017-05-17T07:21:56.116Z,22.90
2017-05-17T07:24:23.641Z,23.00
2017-05-17T07:26:50.435Z,23.10
2017-05-17T07:29:17.928Z,23.20
2017-05-17T07:31:44.688Z,23.40
2017-05-17T07:34:11.464Z,23.60
2017-05-17T07:36:38.965Z,23.70
2017-05-17T07:39:12.594Z,23.70
2017-05-17T07:41:39.360Z,23.80
2017-05-17T07:44:06.861Z,23.90
2017-05-17T07:46:33.627Z,24.00
2017-05-17T07:49:00.389Z,24.00
2017-05-17T07:51:27.201Z,23.90
2017-05-17T07:53:53.957Z,24.00
2017-05-17T07:56:20.721Z,24.00
2017-05-17T07:58:47.801Z,24.00
2017-05-17T08:01:14.577Z,24.00
2017-05-17T08:03:41.373Z,24.10
2017-05-17T08:06:09.027Z,24.10
2017-05-17T08:08:35.798Z,24.30
2017-05-17T08:11:02.572Z,24.50
2017-05-17T08:13:29.340Z,24.70
2017-05-17T08:15:56.132Z,24.70
2017-05-17T08:18:22.885Z,25.30
2017-05-17T08:20:49.652Z,26.00
2017-05-17T08:23:16.432Z,26.60
2017-05-17T08:25:43.968Z,27.30
2017-05-17T08:28:10.775Z,28.30
2017-05-17T08:30:37.536Z,28.70
2017-05-17T08:33:04.300Z,29.10
2017-05-17T08:35:31.077Z,29.10
2017-05-17T08:37:57.845Z,29.30
2017-05-17T08:40:24.623Z,29.40
2017-05-17T08:42:51.380Z,30.00
2017-05-17T08:45:18.885Z,30.30
2017-05-17T08:47:45.661Z,30.60
2017-05-17T08:50:12.429Z,30.70
2017-05-17T08:52:39.948Z,30.90
2017-05-17T08:55:06.728Z,30.90
2017-05-17T08:57:34.227Z,30.60
2017-05-17T09:00:01.079Z,30.30
2017-05-17T09:02:27.880Z,30.50
2017-05-17T09:04:55.419Z,31.10
2017-05-17T09:07:22.180Z,30.90
2017-05-17T09:09:49.745Z,30.40
2017-05-17T09:12:16.508Z,30.70
2017-05-17T09:14:43.273Z,31.20
2017-05-17T09:17:10.044Z,31.70
2017-05-17T09:19:36.891Z,31.70
2017-05-17T09:22:03.688Z,31.60
2017-05-17T09:24:30.484Z,31.40
2017-05-17T09:26:58.017Z,31.50
2017-05-17T09:29:24.812Z,31.50
2017-05-17T09:31:51.577Z,31.50
2017-05-17T09:34:18.337Z,31.30
2017-05-17T09:36:45.128Z,31.40
2017-05-17T09:39:12.631Z,31.80
2017-05-17T09:41:39.397Z,31.90
2017-05-17T09:44:06.203Z,32.50
2017-05-17T09:46:33.076Z,32.80
2017-05-17T09:48:59.832Z,32.60
2017-05-17T09:51:26.629Z,32.30
2017-05-17T09:53:53.387Z,32.20
2017-05-17T09:56:20.148Z,31.80
2017-05-17T09:58:46.936Z,32.20
2017-05-17T10:01:13.727Z,32.20
2017-05-17T10:03:40.504Z,32.10
2017-05-17T10:06:08.053Z,31.60
2017-05-17T10:08:35.552Z,31.10
2017-05-17T10:11:02.309Z,30.90
2017-05-17T10:13:29.104Z,30.50
2017-05-17T10:15:56.613Z,30.50
2017-05-17T10:18:23.385Z,30.30
2017-05-17T10:20:50.165Z,30.30
2017-05-17T10:23:16.924Z,30.30
2017-05-17T10:25:43.721Z,30.50
2017-05-17T10:28:10.502Z,30.60
2017-05-17T10:30:37.270Z,30.20
2017-05-17T10:33:04.074Z,29.80
2017-05-17T10:35:30.839Z,30.10
2017-05-17T10:37:57.595Z,30.10
2017-05-17T10:40:24.394Z,30.00
2017-05-17T10:42:51.889Z,29.90
2017-05-17T10:45:18.643Z,30.40
2017-05-17T10:47:45.464Z,30.40
2017-05-17T10:50:12.227Z,30.40
2017-05-17T10:52:38.993Z,30.70
2017-05-17T10:55:05.789Z,30.80
2017-05-17T10:57:32.560Z,30.50
2017-05-17T10:59:59.323Z,30.40
2017-05-17T11:02:26.113Z,30.40
2017-05-17T11:04:52.888Z,30.80
2017-05-17T11:07:19.653Z,30.90
2017-05-17T11:09:46.440Z,31.00
2017-05-17T11:12:13.459Z,31.40
2017-05-17T11:14:41.008Z,31.70
2017-05-17T11:17:08.544Z,31.60
2017-05-17T11:19:35.305Z,31.60
2017-05-17T11:22:02.079Z,31.50
2017-05-17T11:24:28.884Z,31.60
2017-05-17T11:26:55.650Z,31.90
2017-05-17T11:29:22.420Z,31.70
2017-05-17T11:31:49.203Z,31.90
2017-05-17T11:34:15.955Z,31.80
2017-05-17T11:36:42.724Z,32.00
2017-05-17T11:39:09.516Z,32.30
2017-05-17T11:41:36.300Z,32.00
2017-05-17T11:44:03.807Z,31.70
2017-05-17T11:46:30.599Z,31.40
2017-05-17T11:48:58.108Z,31.70
2017-05-17T11:51:24.872Z,31.80
2017-05-17T11:53:51.676Z,31.50
2017-05-17T11:56:18.437Z,30.80
2017-05-17T11:58:45.205Z,31.30
2017-05-17T12:01:11.996Z,31.60
2017-05-17T12:03:38.757Z,31.20
2017-05-17T12:06:05.516Z,31.10
2017-05-17T12:08:32.293Z,31.00
2017-05-17T12:10:59.796Z,31.00
2017-05-17T12:13:26.548Z,31.50
2017-05-17T12:15:53.352Z,32.00
2017-05-17T12:18:20.116Z,31.90
2017-05-17T12:20:46.871Z,31.50
2017-05-17T12:23:13.659Z,31.30
2017-05-17T12:28:15.470Z,31.40
2017-05-17T12:30:42.226Z,31.20
2017-05-17T12:33:08.988Z,31.50
2017-05-17T12:35:35.777Z,32.10
2017-05-17T12:38:02.539Z,32.40
2017-05-17T12:40:29.297Z,32.00
2017-05-17T12:42:56.089Z,31.50
2017-05-17T12:45:23.599Z,31.20
2017-05-17T12:47:50.365Z,31.50
2017-05-17T12:50:17.168Z,31.70
2017-05-17T12:52:43.923Z,31.60
2017-05-17T12:55:10.680Z,31.70
2017-05-17T12:57:37.476Z,31.60
2017-05-17T13:00:04.232Z,31.50
2017-05-17T13:02:30.995Z,31.40
2017-05-17T13:04:57.792Z,31.10
2017-05-17T13:07:25.298Z,31.10
2017-05-17T13:09:52.051Z,31.30
2017-05-17T13:12:18.836Z,31.10
2017-05-17T13:14:46.352Z,30.80
2017-05-17T13:17:13.112Z,30.80
2017-05-17T13:19:39.907Z,30.90
2017-05-17T13:22:06.681Z,30.80
2017-05-17T13:24:33.432Z,30.60
2017-05-17T13:27:00.223Z,30.60
2017-05-17T13:29:27.009Z,30.20
2017-05-17T13:31:53.760Z,30.30
2017-05-17T13:34:20.523Z,30.00
2017-05-17T13:36:48.024Z,30.20
2017-05-17T13:39:14.787Z,30.30
2017-05-17T13:41:41.544Z,30.10
2017-05-17T13:44:08.301Z,29.70
2017-05-17T13:46:35.828Z,29.60
2017-05-17T13:49:02.593Z,29.90
2017-05-17T13:51:29.356Z,30.10
2017-05-17T13:53:56.889Z,30.20
2017-05-17T13:56:23.655Z,30.20
2017-05-17T13:58:51.152Z,30.20
2017-05-17T14:01:17.940Z,30.00
2017-05-17T14:03:45.116Z,29.80
2017-05-17T14:06:12.617Z,29.40
2017-05-17T14:08:39.396Z,29.60
2017-05-17T14:11:06.156Z,29.80
2017-05-17T14:13:33.686Z,29.80
2017-05-17T14:16:00.455Z,29.40
2017-05-17T14:18:27.952Z,29.40
2017-05-17T14:20:54.728Z,29.70
2017-05-17T14:23:21.493Z,29.80
2017-05-17T14:25:49.019Z,29.70
2017-05-17T14:28:15.791Z,29.80
2017-05-17T14:30:43.288Z,29.60
2017-05-17T14:33:10.061Z,29.70
2017-05-17T14:35:36.844Z,29.60
2017-05-17T14:38:04.376Z,29.70
2017-05-17T14:40:31.131Z,29.70
2017-05-17T14:42:57.890Z,29.30
2017-05-17T14:45:25.407Z,29.40
2017-05-17T14:47:52.280Z,29.50
2017-05-17T14:50:19.796Z,29.50
2017-05-17T14:52:46.556Z,29.30
2017-05-17T14:55:13.336Z,29.50
2017-05-17T14:57:40.849Z,29.40
2017-05-17T15:00:07.623Z,29.20
2017-05-17T15:02:34.410Z,29.10
2017-05-17T15:05:01.169Z,29.20
2017-05-17T15:07:27.924Z,29.20
2017-05-17T15:09:54.686Z,29.30
2017-05-17T15:12:21.436Z,29.20
2017-05-17T15:14:49.277Z,29.40
2017-05-17T15:17:16.033Z,29.50
2017-05-17T15:19:42.796Z,29.50
2017-05-17T15:22:10.322Z,29.50
2017-05-17T15:24:37.088Z,29.50
2017-05-17T15:27:04.625Z,29.40
2017-05-17T15:29:31.408Z,29.40
2017-05-17T15:31:58.506Z,29.20
2017-05-17T15:34:25.293Z,29.10
2017-05-17T15:36:52.808Z,29.00
2017-05-17T15:39:19.616Z,28.90
2017-05-17T15:41:46.376Z,28.90
2017-05-17T15:44:13.149Z,28.90
2017-05-17T15:46:39.952Z,28.90
2017-05-17T15:49:13.855Z,28.80
2017-05-17T15:51:40.652Z,28.70
2017-05-17T15:54:07.439Z,28.70
2017-05-17T15:56:34.199Z,28.60
2017-05-17T15:59:00.980Z,28.70
2017-05-17T16:01:27.753Z,28.70
2017-05-17T16:03:54.549Z,28.70
2017-05-17T16:06:21.321Z,28.50
2017-05-17T16:08:48.837Z,28.60
2017-05-17T16:11:15.597Z,28.60
2017-05-17T16:13:42.393Z,28.60
2017-05-17T16:16:09.172Z,28.60
2017-05-17T16:18:36.260Z,28.50
2017-05-17T16:21:03.768Z,28.20
2017-05-17T16:23:30.559Z,28.20
2017-05-17T16:25:57.342Z,28.10
2017-05-17T16:28:24.116Z,28.30
2017-05-17T16:30:50.913Z,28.30
2017-05-17T16:33:17.676Z,28.40
2017-05-17T16:35:44.435Z,28.40
2017-05-17T16:38:11.225Z,28.40
2017-05-17T16:40:37.998Z,28.30
2017-05-17T16:43:04.759Z,28.20
2017-05-17T16:45:31.551Z,28.20
2017-05-17T16:47:58.319Z,28.30
2017-05-17T16:50:25.120Z,28.20
2017-05-17T16:52:52.650Z,28.10
2017-05-17T16:55:19.424Z,28.00
2017-05-17T16:57:46.916Z,28.00
2017-05-17T17:00:13.703Z,28.00
2017-05-17T17:02:40.465Z,27.90
2017-05-17T17:05:07.964Z,27.90
2017-05-17T17:07:34.752Z,27.90
2017-05-17T17:10:01.523Z,28.00
2017-05-17T17:12:28.285Z,27.90
2017-05-17T17:14:55.293Z,27.80
2017-05-17T17:17:22.792Z,27.80
2017-05-17T17:19:49.608Z,27.70
2017-05-17T17:22:16.416Z,27.60
2017-05-17T17:24:43.174Z,27.60
2017-05-17T17:27:10.680Z,27.50
2017-05-17T17:29:37.475Z,27.60
2017-05-17T17:32:04.241Z,27.60
2017-05-17T17:34:31.033Z,27.60
2017-05-17T17:36:57.819Z,27.50
2017-05-17T17:39:25.321Z,27.40
2017-05-17T17:41:52.325Z,27.30
2017-05-17T17:44:19.857Z,27.20
2017-05-17T17:46:46.620Z,27.10
2017-05-17T17:49:13.380Z,27.00
2017-05-17T17:51:40.173Z,27.00
2017-05-17T17:54:06.945Z,26.90
2017-05-17T17:56:34.452Z,26.80
2017-05-17T17:59:01.269Z,26.80
2017-05-17T18:01:28.050Z,26.80
2017-05-17T18:03:54.976Z,26.70
2017-05-17T18:06:21.773Z,26.70
2017-05-17T18:08:49.281Z,26.60
2017-05-17T18:11:16.057Z,26.60
2017-05-17T18:13:42.849Z,26.50
2017-05-17T18:16:09.608Z,26.40
2017-05-17T18:18:36.363Z,26.40
2017-05-17T18:21:03.161Z,26.30
2017-05-17T18:23:29.924Z,26.30
2017-05-17T18:25:56.692Z,26.10
2017-05-17T18:28:23.508Z,25.90
2017-05-17T18:30:50.271Z,25.80
2017-05-17T18:33:17.199Z,25.60
2017-05-17T18:35:44.032Z,25.30
2017-05-17T18:38:10.799Z,25.20
2017-05-17T18:40:37.577Z,25.00
2017-05-17T18:43:04.373Z,24.90
2017-05-17T18:45:31.128Z,24.80
2017-05-17T18:47:57.895Z,24.70
2017-05-17T18:50:24.656Z,24.50
2017-05-17T18:52:52.232Z,24.50
2017-05-17T18:55:19.006Z,24.40
2017-05-17T18:57:45.808Z,24.40
2017-05-17T19:00:13.328Z,24.20
2017-05-17T19:02:40.094Z,24.20
2017-05-17T19:05:07.617Z,24.10
2017-05-17T19:07:34.379Z,24.10
2017-05-17T19:10:01.176Z,24.10
2017-05-17T19:12:27.945Z,24.00
2017-05-17T19:14:54.709Z,23.90
2017-05-17T19:17:21.487Z,23.80
2017-05-17T19:19:48.628Z,23.80
2017-05-17T19:22:16.144Z,23.70
2017-05-17T19:24:42.918Z,23.60
2017-05-17T19:27:10.452Z,23.50
2017-05-17T19:29:37.237Z,23.50
2017-05-17T19:32:04.008Z,23.40
2017-05-17T19:34:30.783Z,23.40
2017-05-17T19:36:57.544Z,23.30
2017-05-17T19:39:24.504Z,23.20
2017-05-17T19:41:52.024Z,23.10
2017-05-17T19:44:18.791Z,23.00
2017-05-17T19:46:45.572Z,23.00
2017-05-17T19:49:12.433Z,23.00
2017-05-17T19:51:39.196Z,22.90
2017-05-17T19:54:05.972Z,22.80
2017-05-17T19:56:33.485Z,22.70
2017-05-17T19:59:00.289Z,22.70
2017-05-17T20:01:27.081Z,22.70
2017-05-17T20:03:53.855Z,22.60
2017-05-17T20:06:21.627Z,22.50
2017-05-17T20:08:49.148Z,22.40
2017-05-17T20:11:15.904Z,22.40
2017-05-17T20:13:42.728Z,22.30
2017-05-17T20:16:09.496Z,22.30
2017-05-17T20:18:36.394Z,22.20
2017-05-17T20:21:03.143Z,22.20
2017-05-17T20:23:29.916Z,22.10
2017-05-17T20:25:56.693Z,22.10
2017-05-17T20:28:23.476Z,22.10
2017-05-17T20:30:50.244Z,22.10
2017-05-17T20:33:17.016Z,22.00
2017-05-17T20:35:44.523Z,21.90
2017-05-17T20:38:11.305Z,21.90
2017-05-17T20:40:38.816Z,21.80
2017-05-17T20:43:05.581Z,21.70
2017-05-17T20:45:32.336Z,21.70
2017-05-17T20:47:59.209Z,21.70
2017-05-17T20:50:25.976Z,21.70
2017-05-17T20:52:52.737Z,21.60
2017-05-17T20:55:19.663Z,21.60
2017-05-17T20:57:46.459Z,21.60
2017-05-17T21:00:13.223Z,21.60
2017-05-17T21:02:39.993Z,21.60
2017-05-17T21:05:06.793Z,21.50
2017-05-17T21:07:34.318Z,21.40
2017-05-17T21:10:01.116Z,21.40
2017-05-17T21:12:28.168Z,21.30
2017-05-17T21:14:56.027Z,21.30
2017-05-17T21:17:22.824Z,21.20
2017-05-17T21:19:49.605Z,21.20
2017-05-17T21:22:16.412Z,21.10
2017-05-17T21:24:43.178Z,21.10
2017-05-17T21:27:10.675Z,21.00
2017-05-17T21:29:37.480Z,21.00
2017-05-17T21:32:04.655Z,20.90
2017-05-17T21:34:31.449Z,20.90
2017-05-17T21:36:58.204Z,20.90
2017-05-17T21:39:24.969Z,20.90
2017-05-17T21:41:52.504Z,20.90
2017-05-17T21:44:19.287Z,20.90
2017-05-17T21:46:46.043Z,20.80
2017-05-17T21:49:12.835Z,20.80
2017-05-17T21:51:39.672Z,20.70
2017-05-17T21:54:06.443Z,20.70
2017-05-17T21:56:33.975Z,20.60
2017-05-17T21:59:00.744Z,20.60
2017-05-17T22:01:28.248Z,20.50
2017-05-17T22:03:55.043Z,20.50
2017-05-17T22:06:22.548Z,20.40
2017-05-17T22:08:49.313Z,20.40
2017-05-17T22:11:16.088Z,20.50
2017-05-17T22:13:43.589Z,20.40
2017-05-17T22:16:10.365Z,20.40
2017-05-17T22:18:37.132Z,20.40
2017-05-17T22:21:04.640Z,20.30
2017-05-17T22:23:31.395Z,20.30
2017-05-17T22:25:58.168Z,20.30
2017-05-17T22:28:25.667Z,20.30
2017-05-17T22:30:52.684Z,20.40
2017-05-17T22:33:19.453Z,20.40
2017-05-17T22:35:46.207Z,20.50
2017-05-17T22:38:12.992Z,20.60
2017-05-17T22:40:39.757Z,20.60
2017-05-17T22:43:06.524Z,20.60
2017-05-17T22:45:33.316Z,20.60
2017-05-17T22:48:00.076Z,20.60
2017-05-17T22:50:27.600Z,20.60
2017-05-17T22:52:54.377Z,20.60
2017-05-17T22:55:21.891Z,20.60
2017-05-17T22:57:48.652Z,20.60
2017-05-17T23:00:15.447Z,20.60
2017-05-17T23:02:42.220Z,20.50
2017-05-17T23:05:08.985Z,20.50
2017-05-17T23:07:35.757Z,20.50
2017-05-17T23:10:02.525Z,20.50
2017-05-17T23:12:29.275Z,20.50
2017-05-17T23:14:56.040Z,20.60
2017-05-17T23:17:22.815Z,20.60
2017-05-17T23:19:50.340Z,20.50
2017-05-17T23:22:17.859Z,20.60
2017-05-17T23:24:44.631Z,20.60
2017-05-17T23:27:11.412Z,20.50
2017-05-17T23:29:38.934Z,20.50
2017-05-17T23:32:05.728Z,20.50
2017-05-17T23:34:32.508Z,20.60
2017-05-17T23:36:59.277Z,20.60
2017-05-17T23:39:26.085Z,20.50
2017-05-17T23:41:53.092Z,20.50
2017-05-17T23:44:20.624Z,20.50
2017-05-17T23:46:47.388Z,20.40
2017-05-17T23:49:14.893Z,20.40
2017-05-17T23:51:41.668Z,20.40
2017-05-17T23:54:08.428Z,20.30
2017-05-17T23:56:35.953Z,20.20
2017-05-17T23:59:02.710Z,20.20
